Time;durP1;ratioP1;P1;durP2;ratioP2;P2;SDS_P1;SDS_P2;PMS_P1;PMS_P2;Temp;Humidity;BMP_temperature;BMP_pressure;BME280_temperature;BME280_humidity;BME280_pressure;Samples;Min_cycle;Max_cycle;Signal;HPM_P1;HPM_P2
2021/12/02 00:01:54;;;;;;;2.05;0.38;;;;;;;;;;5090782;28;20031;-70
2021/12/02 00:04:21;;;;;;;2.50;0.60;;;;;;;;;;5091659;28;20020;-70
2021/12/02 00:06:46;;;;;;;3.90;0.60;;;6.10;99.90;;;;;;5090811;28;20648;-70
2021/12/02 00:09:12;;;;;;;2.50;0.50;;;6.00;99.90;;;;;;5091862;28;20032;-70
2021/12/02 00:11:38;;;;;;;1.02;0.20;;;5.90;99.90;;;;;;5090588;28;20060;-70
2021/12/02 00:14:08;;;;;;;1.00;0.30;;;5.90;99.90;;;;;;5091700;28;20533;-70
2021/12/02 00:16:52;;;;;;;3.60;0.40;;;5.80;99.90;;;;;;5090842;28;20094;-70
2021/12/02 00:22:05;;;;;;;1.63;0.55;;;5.70;99.90;;;;;;5093485;28;20063;-70
2021/12/02 00:24:34;;;;;;;1.50;0.40;;;5.70;99.90;;;;;;5095011;28;20039;-68
2021/12/02 00:27:03;;;;;;;1.75;0.30;;;5.60;99.90;;;;;;5095294;28;20024;-70
2021/12/02 00:29:29;;;;;;;2.53;0.47;;;5.50;99.90;;;;;;5094760;28;20051;-68
2021/12/02 00:31:59;;;;;;;1.27;0.50;;;5.60;99.90;;;;;;5094998;28;20081;-70
2021/12/02 00:34:25;;;;;;;1.50;0.30;;;5.50;99.90;;;;;;5095307;28;20032;-70
2021/12/02 00:36:50;;;;;;;0.95;0.30;;;5.50;99.90;;;;;;5094081;28;20019;-70
2021/12/02 00:39:19;;;;;;;3.05;0.60;;;5.50;99.90;;;;;;5095158;28;20438;-70
2021/12/02 00:41:46;;;;;;;2.28;0.50;;;5.50;99.90;;;;;;5093991;28;20035;-68
2021/12/02 00:44:13;;;;;;;2.17;0.50;;;5.60;99.90;;;;;;5095206;28;20032;-70
2021/12/02 00:46:40;;;;;;;2.17;0.65;;;5.50;99.90;;;;;;5094426;28;20064;-69
2021/12/02 00:49:11;;;;;;;4.78;0.50;;;5.50;99.90;;;;;;5094904;28;20051;-70
2021/12/02 00:51:38;;;;;;;4.25;0.45;;;5.50;99.90;;;;;;5093932;28;20024;-70
2021/12/02 00:54:07;;;;;;;1.75;0.50;;;5.40;99.90;;;;;;5095200;28;20051;-71
2021/12/02 00:56:33;;;;;;;2.72;0.40;;;5.40;99.90;;;;;;5093994;28;20020;-69
2021/12/02 00:58:59;;;;;;;6.28;0.70;;;5.30;99.90;;;;;;5095094;28;20392;-69
2021/12/02 01:01:27;;;;;;;0.80;0.25;;;5.30;99.90;;;;;;5094978;28;20034;-71
2021/12/02 01:03:58;;;;;;;1.10;0.30;;;5.20;99.90;;;;;;5095239;28;20028;-70
2021/12/02 01:06:25;;;;;;;3.95;0.55;;;5.20;99.90;;;;;;5094444;28;20085;-70
2021/12/02 01:08:51;;;;;;;1.85;0.22;;;5.20;99.90;;;;;;5093994;28;20032;-70
2021/12/02 01:11:18;;;;;;;2.05;0.70;;;5.10;99.90;;;;;;5094027;28;20096;-69
2021/12/02 01:13:44;;;;;;;1.55;0.40;;;5.20;99.90;;;;;;5093723;28;20034;-71
2021/12/02 01:16:10;;;;;;;1.58;0.40;;;5.10;99.90;;;;;;5094729;28;20099;-70
2021/12/02 01:18:36;;;;;;;2.92;0.43;;;5.10;99.90;;;;;;5093909;28;20149;-69
2021/12/02 01:21:03;;;;;;;1.17;0.50;;;5.10;99.90;;;;;;5093793;28;20035;-70
2021/12/02 01:23:31;;;;;;;2.83;0.60;;;5.10;99.90;;;;;;5094174;28;20052;-68
2021/12/02 01:26:07;;;;;;;0.93;0.32;;;5.10;99.90;;;;;;5094038;28;20025;-69
2021/12/02 01:28:34;;;;;;;0.50;0.40;;;5.10;99.90;;;;;;5092983;28;20028;-68
2021/12/02 01:30:59;;;;;;;1.25;0.40;;;5.00;99.90;;;;;;5093493;28;20036;-68
2021/12/02 01:33:27;;;;;;;1.45;0.43;;;5.00;99.90;;;;;;5093564;28;20518;-69
2021/12/02 01:36:01;;;;;;;1.58;0.52;;;5.00;99.90;;;;;;5093537;28;20387;-69
2021/12/02 01:38:28;;;;;;;1.13;0.30;;;5.00;99.90;;;;;;5094355;28;20036;-69
2021/12/02 01:40:56;;;;;;;3.03;0.50;;;5.00;99.90;;;;;;5093187;28;20035;-69
2021/12/02 01:43:48;;;;;;;1.17;0.43;;;5.00;99.90;;;;;;5093690;28;20084;-69
2021/12/02 01:46:20;;;;;;;2.60;0.40;;;5.00;99.90;;;;;;5094110;28;20024;-69
2021/12/02 01:48:49;;;;;;;1.35;0.40;;;5.00;99.90;;;;;;5093032;28;20083;-69
2021/12/02 01:51:18;;;;;;;0.93;0.40;;;5.00;99.90;;;;;;5093562;28;20062;-69
2021/12/02 01:53:48;;;;;;;0.80;0.30;;;5.00;99.90;;;;;;5092812;28;20254;-69
2021/12/02 01:56:16;;;;;;;1.00;0.30;;;5.00;99.90;;;;;;5093508;28;20424;-69
2021/12/02 01:58:50;;;;;;;3.45;0.47;;;5.20;99.90;;;;;;5092652;28;20031;-69
2021/12/02 02:01:26;;;;;;;3.55;0.60;;;5.20;99.90;;;;;;5094261;28;20028;-69
2021/12/02 02:03:54;;;;;;;2.95;0.63;;;5.20;99.90;;;;;;5093792;28;20024;-69
2021/12/02 02:06:28;;;;;;;2.95;0.60;;;5.30;99.90;;;;;;5093199;28;20024;-69
2021/12/02 02:08:56;;;;;;;2.67;0.40;;;5.30;99.90;;;;;;5092211;28;20032;-70
2021/12/02 02:11:25;;;;;;;5.45;0.50;;;5.20;99.90;;;;;;5093178;28;20080;-70
2021/12/02 02:13:51;;;;;;;1.37;0.30;;;5.10;99.90;;;;;;5092178;28;20032;-70
2021/12/02 02:16:17;;;;;;;2.40;0.60;;;5.10;99.90;;;;;;5092954;28;20038;-69
2021/12/02 02:18:43;;;;;;;3.63;0.45;;;4.90;99.90;;;;;;5092649;28;20077;-69
2021/12/02 02:21:10;;;;;;;4.07;0.70;;;4.90;99.90;;;;;;5093430;28;20479;-70
2021/12/02 02:23:43;;;;;;;2.53;0.30;;;4.80;99.90;;;;;;5092548;28;20091;-68
2021/12/02 02:26:09;;;;;;;3.10;0.43;;;4.70;99.90;;;;;;5091915;28;20028;-68
2021/12/02 02:28:36;;;;;;;4.80;0.45;;;4.60;99.90;;;;;;5090634;28;20362;-68
2021/12/02 02:31:02;;;;;;;0.82;0.20;;;4.60;99.90;;;;;;5092580;28;20028;-69
2021/12/02 02:33:36;;;;;;;1.58;0.40;;;4.40;99.90;;;;;;5093187;28;20032;-69
2021/12/02 02:36:03;;;;;;;1.02;0.15;;;4.30;99.90;;;;;;5092559;28;20024;-69
2021/12/02 02:38:29;;;;;;;0.93;0.30;;;4.30;99.90;;;;;;5091797;28;20507;-69
2021/12/02 02:43:52;;;;;;;1.88;0.25;;;4.30;99.90;;;;;;5318473;23;20025;-71
2021/12/02 02:46:31;;;;;;;2.60;0.17;;;4.30;99.90;;;;;;4995341;28;20055;-69
2021/12/02 02:48:58;;;;;;;0.45;0.28;;;4.30;99.90;;;;;;5001858;28;20156;-69
2021/12/02 02:51:26;;;;;;;1.35;0.20;;;4.30;99.90;;;;;;5012731;28;20109;-72
2021/12/02 02:53:55;;;;;;;0.88;0.30;;;4.20;99.90;;;;;;4994982;28;20039;-71
2021/12/02 02:56:23;;;;;;;1.00;0.63;;;4.20;99.90;;;;;;5012376;28;20080;-71
2021/12/02 02:59:02;;;;;;;0.82;0.30;;;4.10;99.90;;;;;;4996094;28;20058;-71
2021/12/02 03:02:02;;;;;;;1.10;0.22;;;4.10;99.90;;;;;;4992605;28;20030;-71
2021/12/02 03:09:49;;;;;;;1.65;0.32;;;4.00;99.90;;;;;;4983961;28;20042;-71
2021/12/02 03:16:43;;;;;;;0.52;0.20;;;3.80;99.90;;;;;;5011726;28;20034;-70
2021/12/02 03:17:38;;;;;;;2.08;0.40;;;3.80;99.90;;;;;;4992109;28;20076;-71
2021/12/02 03:20:04;;;;;;;2.05;0.50;;;3.70;99.90;;;;;;4991162;28;20404;-70
2021/12/02 03:22:30;;;;;;;1.35;0.32;;;3.80;99.90;;;;;;4991966;28;20368;-71
2021/12/02 03:24:56;;;;;;;1.33;0.20;;;3.70;99.90;;;;;;5002238;28;20468;-69
2021/12/02 03:27:22;;;;;;;0.88;0.30;;;3.70;99.90;;;;;;5011600;28;20435;-71
2021/12/02 03:29:48;;;;;;;2.25;0.30;;;3.70;99.90;;;;;;5011699;28;20044;-71
2021/12/02 03:32:14;;;;;;;4.30;0.75;;;3.60;99.90;;;;;;5010213;28;20018;-71
2021/12/02 03:34:40;;;;;;;1.65;0.30;;;3.60;99.90;;;;;;4999665;28;20030;-71
2021/12/02 03:37:08;;;;;;;3.60;0.50;;;3.60;99.90;;;;;;4998452;28;20053;-71
2021/12/02 03:39:33;;;;;;;2.28;0.50;;;3.50;99.90;;;;;;4999454;28;20026;-71
2021/12/02 03:42:01;;;;;;;3.05;0.28;;;3.60;99.90;;;;;;5000768;28;20026;-71
2021/12/02 03:44:27;;;;;;;1.25;0.40;;;3.60;99.90;;;;;;5000531;28;20053;-71
2021/12/02 03:46:53;;;;;;;2.08;0.25;;;3.50;99.90;;;;;;5002347;28;20089;-71
2021/12/02 03:49:20;;;;;;;1.52;0.25;;;3.50;99.90;;;;;;5023110;28;20778;-72
2021/12/02 03:51:45;;;;;;;0.80;0.20;;;3.50;99.90;;;;;;5005694;28;20098;-72
2021/12/02 03:54:11;;;;;;;2.92;0.43;;;3.50;99.90;;;;;;4998761;28;20114;-73
2021/12/02 03:56:37;;;;;;;2.22;0.40;;;3.50;99.90;;;;;;5001092;28;20034;-72
2021/12/02 03:59:03;;;;;;;5.80;1.73;;;3.50;99.90;;;;;;5000400;28;20026;-72
2021/12/02 04:01:29;;;;;;;2.95;0.70;;;3.50;99.90;;;;;;5005317;28;20463;-72
2021/12/02 04:03:54;;;;;;;5.57;0.63;;;3.50;99.90;;;;;;5003398;28;20029;-69
2021/12/02 04:06:21;;;;;;;2.33;0.85;;;3.50;99.90;;;;;;5000967;28;20092;-72
2021/12/02 04:08:53;;;;;;;4.45;0.68;;;3.60;99.90;;;;;;5004770;28;20034;-72
2021/12/02 04:14:04;;;;;;;3.15;0.30;;;3.70;99.90;;;;;;5003583;28;20449;-71
2021/12/02 04:16:34;;;;;;;1.38;0.70;;;3.70;99.90;;;;;;5002172;28;20052;-71
2021/12/02 04:18:59;;;;;;;1.30;0.22;;;3.80;99.90;;;;;;5003946;28;20030;-70
2021/12/02 04:21:25;;;;;;;1.75;0.30;;;3.90;99.90;;;;;;5004167;28;20088;-71
2021/12/02 04:23:51;;;;;;;1.25;0.20;;;3.90;99.90;;;;;;5004502;28;20050;-71
2021/12/02 04:26:17;;;;;;;2.28;0.40;;;4.00;99.90;;;;;;5001200;28;20083;-70
2021/12/02 04:28:43;;;;;;;3.00;0.30;;;4.00;99.90;;;;;;5003338;28;20030;-71
2021/12/02 04:31:09;;;;;;;2.72;0.50;;;4.00;99.90;;;;;;5003839;28;20030;-71
2021/12/02 04:33:35;;;;;;;1.27;0.43;;;4.00;99.90;;;;;;5002969;28;20072;-71
2021/12/02 04:36:01;;;;;;;1.77;0.40;;;4.00;99.90;;;;;;5002592;28;20034;-70
2021/12/02 04:38:28;;;;;;;1.40;0.50;;;4.00;99.90;;;;;;5004476;28;20041;-70
2021/12/02 04:40:55;;;;;;;2.40;0.52;;;4.00;99.90;;;;;;5001606;28;20034;-71
2021/12/02 04:43:22;;;;;;;1.05;0.40;;;4.10;99.90;;;;;;5003846;28;20026;-71
2021/12/02 04:45:48;;;;;;;3.05;0.28;;;4.10;99.90;;;;;;5003506;28;20050;-71
2021/12/02 04:48:15;;;;;;;1.40;0.30;;;4.10;99.90;;;;;;5002740;28;20393;-70
2021/12/02 04:50:41;;;;;;;1.65;0.22;;;4.10;99.90;;;;;;5003229;28;20444;-73
2021/12/02 04:53:07;;;;;;;1.20;0.38;;;4.00;99.90;;;;;;5001227;28;20030;-70
2021/12/02 04:55:32;;;;;;;2.15;0.45;;;4.00;99.90;;;;;;5001498;28;20026;-71
2021/12/02 04:57:58;;;;;;;1.17;0.32;;;4.10;99.90;;;;;;5003056;28;20034;-68
2021/12/02 05:00:24;;;;;;;1.30;0.30;;;4.10;99.90;;;;;;5003332;28;20022;-70
2021/12/02 05:02:50;;;;;;;1.92;0.38;;;4.10;99.90;;;;;;5003385;28;20033;-71
2021/12/02 05:05:16;;;;;;;5.00;0.60;;;4.10;99.90;;;;;;5007045;28;20202;-72
2021/12/02 05:07:42;;;;;;;2.72;0.60;;;4.10;99.90;;;;;;4993926;28;20459;-71
2021/12/02 05:10:08;;;;;;;2.92;0.50;;;4.10;99.90;;;;;;4996240;28;20041;-70
2021/12/02 05:12:33;;;;;;;0.35;0.20;;;4.20;99.90;;;;;;5001092;28;20030;-69
2021/12/02 05:15:00;;;;;;;3.55;0.43;;;4.20;99.90;;;;;;5000806;28;20034;-69
2021/12/02 05:17:26;;;;;;;3.03;0.45;;;4.10;99.90;;;;;;5003517;28;20034;-69
2021/12/02 05:19:51;;;;;;;1.90;0.45;;;4.10;99.90;;;;;;5002752;28;20018;-71
2021/12/02 05:22:17;;;;;;;1.73;0.50;;;4.10;99.90;;;;;;5001945;28;20108;-71
2021/12/02 05:24:43;;;;;;;1.40;0.40;;;4.10;99.90;;;;;;5002103;28;20374;-71
2021/12/02 05:27:09;;;;;;;1.58;0.50;;;4.10;99.90;;;;;;5003152;28;20053;-71
2021/12/02 05:29:34;;;;;;;0.77;0.35;;;4.10;99.90;;;;;;5002743;28;20486;-71
2021/12/02 05:32:00;;;;;;;1.65;0.55;;;4.10;99.90;;;;;;5002125;28;20026;-70
2021/12/02 05:34:26;;;;;;;0.98;0.50;;;4.20;99.90;;;;;;5003045;28;20030;-71
2021/12/02 05:36:53;;;;;;;0.43;0.20;;;4.20;99.90;;;;;;5002633;28;20493;-71
2021/12/02 05:39:19;;;;;;;4.60;0.43;;;4.10;99.90;;;;;;5002358;28;20031;-72
2021/12/02 05:41:45;;;;;;;1.83;0.30;;;4.10;99.90;;;;;;5004552;28;20432;-71
2021/12/02 05:44:11;;;;;;;1.52;0.50;;;4.10;99.90;;;;;;5007118;28;20034;-72
2021/12/02 05:46:36;;;;;;;2.70;0.70;;;4.00;99.90;;;;;;5004673;28;20097;-72
2021/12/02 05:49:02;;;;;;;1.67;0.32;;;4.00;99.90;;;;;;5006861;28;20036;-71
2021/12/02 05:51:28;;;;;;;2.75;0.20;;;3.90;99.90;;;;;;5008797;28;20434;-72
2021/12/02 05:53:53;;;;;;;2.92;0.50;;;3.90;99.90;;;;;;5002549;28;20108;-72
2021/12/02 05:56:19;;;;;;;3.92;0.70;;;4.00;99.90;;;;;;4999940;28;20084;-71
2021/12/02 05:58:44;;;;;;;1.15;0.50;;;3.90;99.90;;;;;;5004563;28;20042;-70
2021/12/02 06:01:10;;;;;;;1.25;0.40;;;3.90;99.90;;;;;;5001180;28;20023;-71
2021/12/02 06:03:37;;;;;;;2.50;0.40;;;3.90;99.90;;;;;;5001578;28;20026;-72
2021/12/02 06:06:06;;;;;;;1.83;0.50;;;3.90;99.90;;;;;;5005660;28;20030;-71
2021/12/02 06:08:32;;;;;;;1.60;0.52;;;3.90;99.90;;;;;;5010362;28;20068;-73
2021/12/02 06:10:58;;;;;;;1.08;0.10;;;4.00;99.90;;;;;;5013244;28;20057;-69
2021/12/02 06:13:26;;;;;;;0.77;0.30;;;4.00;99.90;;;;;;5004339;28;20442;-73
2021/12/02 06:15:52;;;;;;;0.90;0.43;;;4.00;99.90;;;;;;4993493;28;20039;-73
2021/12/02 06:18:18;;;;;;;1.33;0.20;;;4.00;99.90;;;;;;4992465;28;20034;-71
2021/12/02 06:20:47;;;;;;;2.22;0.70;;;4.00;99.90;;;;;;4994019;28;20100;-72
2021/12/02 06:23:12;;;;;;;1.58;0.30;;;3.90;99.90;;;;;;5000674;28;20022;-71
2021/12/02 06:28:05;;;;;;;0.43;0.30;;;3.90;99.90;;;;;;4995248;28;20073;-72
2021/12/02 06:30:31;;;;;;;2.88;0.43;;;3.80;99.90;;;;;;4995277;28;20513;-72
2021/12/02 06:32:57;;;;;;;2.85;0.47;;;3.90;99.90;;;;;;5000922;28;20030;-68
2021/12/02 06:35:23;;;;;;;1.92;0.47;;;3.80;99.90;;;;;;5009129;28;20180;-74
2021/12/02 06:37:49;;;;;;;3.13;0.40;;;3.80;99.90;;;;;;5012503;28;20522;-72
2021/12/02 06:40:15;;;;;;;1.58;0.22;;;3.80;99.90;;;;;;5011486;28;20489;-73
2021/12/02 06:42:41;;;;;;;2.58;0.30;;;3.70;99.90;;;;;;5007451;28;20030;-72
2021/12/02 06:45:09;;;;;;;2.45;0.85;;;3.70;99.90;;;;;;4991806;28;20054;-72
2021/12/02 06:47:38;;;;;;;1.13;0.50;;;3.50;99.90;;;;;;4993364;28;20034;-72
2021/12/02 06:50:06;;;;;;;1.83;0.40;;;3.50;99.90;;;;;;4991816;28;20397;-73
2021/12/02 06:52:32;;;;;;;1.67;0.85;;;3.40;99.90;;;;;;4998115;28;20038;-76
2021/12/02 06:54:58;;;;;;;3.25;0.70;;;3.30;99.90;;;;;;5000942;28;20090;-71
2021/12/02 06:57:24;;;;;;;4.32;0.50;;;3.20;99.90;;;;;;5002981;28;20030;-71
2021/12/02 06:59:50;;;;;;;1.17;0.35;;;3.10;99.90;;;;;;4998376;28;20065;-72
2021/12/02 07:02:15;;;;;;;1.17;0.20;;;3.10;99.90;;;;;;4991620;28;20034;-72
2021/12/02 07:04:41;;;;;;;1.38;0.40;;;3.10;99.90;;;;;;4991004;28;20115;-71
2021/12/02 07:07:07;;;;;;;0.60;0.43;;;3.10;99.90;;;;;;4990982;28;20066;-71
2021/12/02 07:09:33;;;;;;;3.35;0.70;;;3.10;99.90;;;;;;4991480;28;20057;-72
2021/12/02 07:11:58;;;;;;;2.17;0.88;;;3.10;99.90;;;;;;5001014;28;20026;-70
2021/12/02 07:14:26;;;;;;;1.40;0.50;;;3.10;99.90;;;;;;5010698;28;20047;-71
2021/12/02 07:16:52;;;;;;;2.47;0.98;;;3.10;99.90;;;;;;5011888;28;20463;-71
2021/12/02 07:19:18;;;;;;;3.42;0.80;;;3.10;99.90;;;;;;5011592;28;20042;-70
2021/12/02 07:21:46;;;;;;;1.17;0.60;;;3.00;99.90;;;;;;5006156;28;20632;-70
2021/12/02 07:24:14;;;;;;;2.60;0.90;;;2.90;99.90;;;;;;5011887;28;20390;-71
2021/12/02 07:26:42;;;;;;;4.20;1.27;;;2.80;99.90;;;;;;5011151;28;20030;-71
2021/12/02 07:29:15;;;;;;;3.00;1.40;;;2.80;99.90;;;;;;5011504;28;20036;-71
2021/12/02 07:31:42;;;;;;;1.73;0.60;;;2.80;99.90;;;;;;5005902;28;20037;-71
2021/12/02 07:34:08;;;;;;;2.17;0.80;;;2.80;99.90;;;;;;5010426;28;20072;-71
2021/12/02 07:36:35;;;;;;;2.15;0.70;;;2.70;99.90;;;;;;4994514;28;20026;-71
2021/12/02 07:39:07;;;;;;;0.70;0.50;;;2.80;99.90;;;;;;5007332;28;20033;-69
2021/12/02 07:41:33;;;;;;;1.30;0.47;;;2.80;99.90;;;;;;5001735;28;20026;-72
2021/12/02 07:43:59;;;;;;;1.23;0.30;;;2.90;99.90;;;;;;5010786;28;20034;-71
2021/12/02 07:46:25;;;;;;;1.15;0.50;;;2.90;99.90;;;;;;5007601;28;20073;-72
2021/12/02 07:48:52;;;;;;;1.15;0.40;;;2.90;99.90;;;;;;4991166;28;20463;-72
2021/12/02 07:51:20;;;;;;;1.42;0.70;;;3.00;99.90;;;;;;4993044;28;20069;-72
2021/12/02 07:53:47;;;;;;;2.58;0.93;;;3.00;99.90;;;;;;5011576;28;20026;-72
2021/12/02 07:56:16;;;;;;;1.90;0.88;;;3.00;99.90;;;;;;5011030;28;20030;-73
2021/12/02 07:58:44;;;;;;;2.50;0.40;;;3.00;99.90;;;;;;5003491;28;20030;-71
2021/12/02 08:01:11;;;;;;;1.05;0.60;;;3.00;99.90;;;;;;4992839;28;20030;-72
2021/12/02 08:03:43;;;;;;;0.85;0.47;;;3.10;99.90;;;;;;4991155;28;20113;-73
2021/12/02 08:06:11;;;;;;;1.88;0.60;;;3.10;99.90;;;;;;5002206;28;20467;-72
2021/12/02 08:08:37;;;;;;;2.95;0.50;;;3.20;99.90;;;;;;5011521;28;20061;-73
2021/12/02 08:11:05;;;;;;;2.53;0.60;;;3.30;99.90;;;;;;4993787;28;20190;-70
2021/12/02 08:13:31;;;;;;;3.17;0.85;;;3.30;99.90;;;;;;5010733;28;20030;-73
2021/12/02 08:15:57;;;;;;;2.70;0.95;;;3.40;99.90;;;;;;5004065;28;20058;-72
2021/12/02 08:18:22;;;;;;;2.00;0.93;;;3.40;99.90;;;;;;5006849;28;20465;-72
2021/12/02 08:20:48;;;;;;;3.13;0.98;;;3.40;99.90;;;;;;5010498;28;20048;-71
2021/12/02 08:23:14;;;;;;;1.95;0.70;;;3.40;99.90;;;;;;5010122;28;20504;-71
2021/12/02 08:25:40;;;;;;;1.83;0.63;;;3.50;99.90;;;;;;5001770;28;20034;-72
2021/12/02 08:28:06;;;;;;;1.35;0.93;;;3.50;99.90;;;;;;5010083;28;20044;-70
2021/12/02 08:30:34;;;;;;;1.92;0.90;;;3.60;99.90;;;;;;5004047;28;20521;-72
2021/12/02 08:33:01;;;;;;;1.70;0.93;;;3.70;99.90;;;;;;4993410;28;20029;-71
2021/12/02 08:35:27;;;;;;;1.20;0.98;;;3.80;99.90;;;;;;4990334;28;20037;-71
2021/12/02 08:37:57;;;;;;;3.50;1.05;;;3.80;99.90;;;;;;4992600;28;20046;-71
2021/12/02 08:40:31;;;;;;;;;;;3.90;99.90;;;;;;4991556;28;20443;-71
2021/12/02 08:42:57;;;;;;;2.22;1.10;;;4.00;99.90;;;;;;4993622;28;19906;-71
2021/12/02 08:45:23;;;;;;;2.38;0.57;;;4.10;99.90;;;;;;4994627;28;20494;-71
2021/12/02 08:47:49;;;;;;;5.00;0.80;;;4.10;99.90;;;;;;4995511;28;20117;-73
2021/12/02 08:50:18;;;;;;;1.58;0.88;;;4.20;99.90;;;;;;4994580;28;20109;-71
2021/12/02 08:52:46;;;;;;;2.25;0.70;;;4.30;99.90;;;;;;5005699;28;20109;-71
2021/12/02 08:55:12;;;;;;;1.30;0.85;;;4.30;99.90;;;;;;4994750;28;20081;-71
2021/12/02 08:57:38;;;;;;;1.75;0.63;;;4.40;99.90;;;;;;5006136;28;20406;-71
2021/12/02 09:00:09;;;;;;;2.30;0.85;;;4.40;99.90;;;;;;4993532;28;20026;-70
2021/12/02 09:02:35;;;;;;;2.28;0.80;;;4.40;99.90;;;;;;4995734;28;20431;-72
2021/12/02 09:05:04;;;;;;;1.20;0.68;;;4.40;99.90;;;;;;5012988;28;20034;-72
2021/12/02 09:07:29;;;;;;;2.22;0.60;;;4.50;99.90;;;;;;5012825;28;20092;-72
2021/12/02 09:09:55;;;;;;;0.90;0.80;;;4.60;99.90;;;;;;4997563;28;20471;-72
2021/12/02 09:12:22;;;;;;;5.93;0.90;;;4.60;99.90;;;;;;5011303;28;20022;-72
2021/12/02 09:14:48;;;;;;;2.55;0.75;;;4.70;99.90;;;;;;4994565;28;20348;-72
2021/12/02 09:17:13;;;;;;;2.60;0.63;;;4.80;99.90;;;;;;4994656;28;20034;-72
2021/12/02 09:19:39;;;;;;;1.65;0.70;;;4.90;99.90;;;;;;5014427;28;20092;-72
2021/12/02 09:22:05;;;;;;;2.15;0.80;;;5.00;99.90;;;;;;5013270;28;20095;-72
2021/12/02 09:24:31;;;;;;;2.33;0.80;;;5.00;99.90;;;;;;4995044;28;20034;-72
2021/12/02 09:26:57;;;;;;;1.88;0.82;;;5.10;99.90;;;;;;4993503;28;20027;-71
2021/12/02 09:29:23;;;;;;;0.95;0.85;;;5.20;99.90;;;;;;4993930;28;20784;-72
2021/12/02 09:31:50;;;;;;;1.92;0.80;;;5.30;99.90;;;;;;4996725;28;20038;-72
2021/12/02 09:34:16;;;;;;;2.13;0.77;;;5.40;99.90;;;;;;5011197;28;20037;-72
2021/12/02 09:36:42;;;;;;;2.75;0.93;;;5.50;99.90;;;;;;5011783;28;20436;-72
2021/12/02 09:39:10;;;;;;;2.03;0.90;;;5.60;99.90;;;;;;5009025;28;20048;-71
2021/12/02 09:41:37;;;;;;;2.30;0.60;;;5.60;99.90;;;;;;5014189;28;20505;-72
2021/12/02 09:44:04;;;;;;;1.67;0.80;;;5.70;99.90;;;;;;5013711;28;20057;-71
2021/12/02 09:46:30;;;;;;;1.60;0.90;;;5.70;99.90;;;;;;5011906;28;20030;-72
2021/12/02 09:48:58;;;;;;;2.35;0.93;;;5.70;99.90;;;;;;5004930;28;20045;-71
2021/12/02 09:51:27;;;;;;;2.55;0.77;;;5.60;99.90;;;;;;5000218;28;20236;-72
2021/12/02 09:54:00;;;;;;;1.33;0.80;;;5.50;99.90;;;;;;4992471;28;20057;-72
2021/12/02 09:56:30;;;;;;;1.98;0.70;;;5.40;99.90;;;;;;4992636;28;20092;-72
2021/12/02 09:59:01;;;;;;;;;;;5.30;99.90;;;;;;5002048;28;20034;-72
2021/12/02 10:01:38;;;;;;;1.55;0.70;;;5.10;99.90;;;;;;5003397;28;19910;-72
2021/12/02 10:04:05;;;;;;;1.65;0.90;;;5.10;99.90;;;;;;4994433;28;20038;-72
2021/12/02 10:06:32;;;;;;;2.90;0.95;;;5.00;99.90;;;;;;5002924;28;20030;-72
2021/12/02 10:09:15;;;;;;;4.45;1.23;;;4.90;99.90;;;;;;5005558;28;20072;-72
2021/12/02 10:11:50;;;;;;;2.92;1.27;;;4.90;99.90;;;;;;4993994;28;20031;-72
2021/12/02 10:14:23;;;;;;;1.63;0.50;;;4.80;99.90;;;;;;5010839;28;20477;-71
2021/12/02 10:17:04;;;;;;;1.05;0.40;;;4.50;99.90;;;;;;5013394;28;20018;-72
2021/12/02 10:19:30;;;;;;;0.93;0.40;;;4.10;99.90;;;;;;5000732;28;20430;-71
2021/12/02 10:22:02;;;;;;;2.15;0.80;;;3.80;99.90;;;;;;4997622;28;20156;-72
2021/12/02 10:24:29;;;;;;;2.83;0.90;;;3.60;99.90;;;;;;5012723;28;20034;-72
2021/12/02 10:27:02;;;;;;;1.95;0.93;;;3.40;99.90;;;;;;5012994;28;20080;-71
2021/12/02 10:29:37;;;;;;;0.75;0.47;;;3.40;99.90;;;;;;5012285;28;20109;-71
2021/12/02 10:32:17;;;;;;;0.30;0.30;;;3.40;99.90;;;;;;4999275;28;20194;-71
2021/12/02 10:34:53;;;;;;;0.38;0.25;;;3.30;99.90;;;;;;5006074;28;20060;-72
2021/12/02 10:37:21;;;;;;;1.02;0.50;;;3.30;99.90;;;;;;5012585;28;20038;-71
2021/12/02 10:40:10;;;;;;;1.38;0.63;;;3.10;99.90;;;;;;5000144;28;20027;-72
2021/12/02 10:42:44;;;;;;;1.77;0.60;;;3.10;99.90;;;;;;4993324;28;20026;-71
2021/12/02 10:45:25;;;;;;;1.00;0.73;;;3.10;99.90;;;;;;4995818;28;20051;-70
2021/12/02 10:47:52;;;;;;;1.20;0.50;;;3.10;99.90;;;;;;5000992;28;20131;-70
2021/12/02 10:50:19;;;;;;;0.68;0.40;;;3.10;99.90;;;;;;4995911;28;20043;-70
2021/12/02 10:52:45;;;;;;;3.85;0.70;;;3.10;99.90;;;;;;5004140;28;20034;-70
2021/12/02 10:55:17;;;;;;;1.25;0.52;;;3.20;99.90;;;;;;5010190;28;20053;-70
2021/12/02 10:57:49;;;;;;;4.53;0.80;;;3.20;99.90;;;;;;5004400;28;20038;-71
2021/12/02 11:00:18;;;;;;;0.60;0.30;;;3.30;99.90;;;;;;4997681;28;20026;-70
2021/12/02 11:02:48;;;;;;;1.45;0.63;;;3.30;99.90;;;;;;5008873;28;20026;-71
2021/12/02 11:05:22;;;;;;;1.48;0.68;;;3.20;99.90;;;;;;4991693;28;20177;-71
2021/12/02 11:08:05;;;;;;;0.82;0.38;;;3.20;99.90;;;;;;5009554;28;20049;-71
2021/12/02 11:10:41;;;;;;;0.68;0.50;;;3.20;99.90;;;;;;4993782;28;20034;-70
2021/12/02 11:13:10;;;;;;;1.02;0.82;;;3.30;99.90;;;;;;4992672;28;20038;-69
2021/12/02 11:15:38;;;;;;;0.75;0.40;;;3.30;99.90;;;;;;4992790;28;20041;-70
2021/12/02 11:18:06;;;;;;;0.63;0.30;;;3.20;99.90;;;;;;4992743;28;20030;-70
2021/12/02 11:20:40;;;;;;;0.80;0.60;;;3.20;99.90;;;;;;4993117;28;20080;-72
2021/12/02 11:23:10;;;;;;;0.70;0.35;;;3.10;99.90;;;;;;4994133;28;20383;-71
2021/12/02 11:25:59;;;;;;;0.80;0.45;;;3.10;99.90;;;;;;4993167;28;20109;-71
2021/12/02 11:28:30;;;;;;;2.15;0.40;;;3.10;99.90;;;;;;4995158;28;20052;-71
2021/12/02 11:30:57;;;;;;;0.68;0.40;;;3.10;99.90;;;;;;4994666;28;20041;-71
2021/12/02 11:33:31;;;;;;;0.40;0.30;;;3.10;99.90;;;;;;4991658;28;20030;-70
2021/12/02 11:35:56;;;;;;;3.38;0.30;;;3.10;99.90;;;;;;4992766;28;20383;-70
2021/12/02 11:38:25;;;;;;;0.30;0.30;;;3.10;99.90;;;;;;4991455;28;20030;-70
2021/12/02 11:41:02;;;;;;;0.80;0.40;;;3.00;99.90;;;;;;5012220;28;20359;-71
2021/12/02 11:43:36;;;;;;;2.67;0.60;;;3.00;99.90;;;;;;5010547;28;20419;-70
2021/12/02 11:46:04;;;;;;;1.15;0.50;;;3.10;99.90;;;;;;5011632;28;20501;-71
2021/12/02 11:48:33;;;;;;;2.38;0.60;;;3.00;99.90;;;;;;5010375;28;20033;-75
2021/12/02 11:51:02;;;;;;;4.13;0.60;;;3.10;99.90;;;;;;5007007;28;20138;-75
2021/12/02 11:53:29;;;;;;;1.08;0.52;;;3.10;99.90;;;;;;5011105;28;20040;-75
2021/12/02 11:55:59;;;;;;;2.15;0.63;;;3.10;99.90;;;;;;5011043;28;20022;-74
2021/12/02 11:58:25;;;;;;;1.35;0.75;;;3.10;99.90;;;;;;5005038;28;20034;-76
2021/12/02 12:00:53;;;;;;;1.00;0.63;;;3.10;99.90;;;;;;5010949;28;20040;-74
2021/12/02 12:03:44;;;;;;;1.65;0.82;;;3.20;99.90;;;;;;4999054;28;20038;-73
2021/12/02 12:06:24;;;;;;;2.10;1.35;;;3.20;99.90;;;;;;4991805;28;20375;-73
2021/12/02 12:08:51;;;;;;;0.93;0.50;;;3.30;99.90;;;;;;4993970;28;20034;-73
2021/12/02 12:11:38;;;;;;;2.58;0.75;;;3.30;99.90;;;;;;5011016;28;20489;-72
2021/12/02 12:14:07;;;;;;;1.38;1.13;;;3.30;99.90;;;;;;5011196;28;20033;-74
2021/12/02 12:16:38;;;;;;;1.15;0.80;;;3.50;99.90;;;;;;5010215;28;20101;-72
2021/12/02 12:19:30;;;;;;;2.30;0.80;;;3.50;99.90;;;;;;5013953;28;20034;-72
2021/12/02 12:22:02;;;;;;;2.10;1.10;;;3.70;99.90;;;;;;5017629;28;20049;-71
2021/12/02 12:24:47;;;;;;;1.85;1.00;;;3.70;99.90;;;;;;5014384;28;20045;-72
2021/12/02 12:27:29;;;;;;;1.48;0.70;;;3.70;99.90;;;;;;4999660;28;20046;-72
2021/12/02 12:30:01;;;;;;;1.75;0.70;;;3.80;99.90;;;;;;5006923;28;20034;-72
2021/12/02 12:35:38;;;;;;;1.30;0.88;;;3.80;99.90;;;;;;5012070;28;20038;-71
2021/12/02 12:38:32;;;;;;;0.80;0.65;;;3.80;99.90;;;;;;4996677;28;20022;-71
2021/12/02 12:41:15;;;;;;;1.20;0.80;;;3.80;99.90;;;;;;4994300;28;20096;-71
2021/12/02 12:43:49;;;;;;;2.38;1.20;;;3.80;99.90;;;;;;4995693;28;20160;-71
2021/12/02 12:46:30;;;;;;;1.75;0.93;;;3.80;99.90;;;;;;5006161;28;20103;-71
2021/12/02 12:49:13;;;;;;;1.42;1.10;;;3.80;99.90;;;;;;5012643;28;20053;-71
2021/12/02 12:51:49;;;;;;;1.60;1.00;;;3.80;99.90;;;;;;5007286;28;20060;-71
2021/12/02 12:54:23;;;;;;;4.68;1.02;;;3.80;99.90;;;;;;4994682;28;20034;-71
2021/12/02 12:57:03;;;;;;;4.32;1.25;;;3.90;99.90;;;;;;5013334;28;20061;-71
2021/12/02 12:59:50;;;;;;;1.55;1.17;;;4.00;99.90;;;;;;5013596;28;20065;-71
2021/12/02 13:02:16;;;;;;;3.08;1.30;;;4.10;99.90;;;;;;5002344;28;20117;-70
2021/12/02 13:04:54;;;;;;;2.00;1.00;;;4.20;99.90;;;;;;5013471;28;20129;-70
2021/12/02 13:07:21;;;;;;;2.17;1.10;;;4.20;99.90;;;;;;5010473;28;20027;-71
2021/12/02 13:10:15;;;;;;;5.22;1.30;;;4.20;99.90;;;;;;4995128;28;20566;-71
2021/12/02 13:12:47;;;;;;;1.42;1.08;;;4.30;99.90;;;;;;4994517;28;20123;-70
2021/12/02 13:15:23;;;;;;;2.40;0.98;;;4.30;99.90;;;;;;4994798;28;20069;-71
2021/12/02 13:18:00;;;;;;;4.43;1.05;;;4.40;99.90;;;;;;5001028;28;20036;-70
2021/12/02 13:20:26;;;;;;;1.83;0.93;;;4.40;99.90;;;;;;5009126;28;20033;-71
2021/12/02 13:23:16;;;;;;;5.93;1.30;;;4.30;99.90;;;;;;5000506;28;20410;-71
2021/12/02 13:25:54;;;;;;;1.52;1.00;;;4.30;99.90;;;;;;5014419;28;20026;-71
2021/12/02 13:28:33;;;;;;;2.08;0.90;;;4.20;99.90;;;;;;5011281;28;20052;-71
2021/12/02 13:31:03;;;;;;;1.77;1.40;;;4.30;99.90;;;;;;5003815;28;20109;-70